Dafoe, Canada
Current Conditions -  °F | °C
As of 9:41 PM on Friday 19 Dec 2014 (Local Time) from CYQR Reporting Station
Moderate Fog Moderate Fog  
Wind Chill:   Ceiling: 200
Heat Index: 16°   Visibility: 0.37mi
Dew Point: 14°   Wind: 9mph
Humidity: 93%   Direction: 140°SE
Pressure: 29.91"   Gusts: NA
Location:  51.75°N, 104.53°W
Report Text: CYQR 200341Z 14008KT 3/8SM R13/4000FT/N FZFG VV002 M09/M10 A2991 RMK FG8 FROIN SLP168
Loading
Personal Weather Stations






























Interactive Weather Map New forecast layout! Learn more

10-Day Weather Forecast

Advertisements
Track Severe Weather on mobile